New Champion — V7GG2 — position and weather

sailwx.info

Track history (hours):
 
Tides and Currents Weather Stations Pressure Air Temp Water Temp Dewpoint Dewpoint Depression Visibility Wind Speed Wind Dir Waves Ship Positions

New Champion

Last reported at 2014-Oct-25 14:17 UTC. Time now 2014-Oct-26 07:51 UTC.
Position N 29°58' W 090°16'.

Length 228 m; draft 11.4 m.

Type: Ship (hazmat cat A). MMSI: 537985031.

Date/timePositionNaut miles runAvg speedWind from/ knotsBaromVisibWave heightAir tempDewpointWater temp
2014-Oct-25 14:17N 29°58' W 090°16'0 0.0
2014-Oct-25 13:23N 29°58' W 090°16'0 0.0
2014-Oct-25 12:14N 29°58' W 090°16'0 0.0
2014-Oct-25 11:32N 29°58' W 090°16'0 0.0
2014-Oct-25 10:17N 29°58' W 090°16'0 0.0
2014-Oct-25 08:17N 29°58' W 090°16'0 0.0
2014-Oct-25 07:29N 29°58' W 090°16'0 0.0
2014-Oct-25 06:29N 29°58' W 090°16'0 0.0
2014-Oct-24 15:29N 29°58' W 090°16'0 0.0
2014-Oct-24 14:29N 29°58' W 090°16'0 0.0
2014-Oct-24 13:29N 29°58' W 090°16'0 0.0
2014-Oct-24 12:29N 29°58' W 090°16'0 0.0
2014-Oct-24 11:26N 29°58' W 090°16'0 0.0
2014-Oct-24 07:17N 29°58' W 090°16'0 0.0
2014-Oct-24 06:32N 29°58' W 090°16'0 0.0
2014-Oct-23 12:08N 29°58' W 090°16'0 0.0
2014-Oct-23 10:20N 29°58' W 090°16'0 0.0
2014-Oct-22 13:32N 29°58' W 090°16'1 0.0
2014-Oct-21 14:30N 29°58' W 090°16'8 6.4
2014-Oct-21 13:20N 29°55' W 090°08'6 7.1
2014-Oct-21 12:29N 29°57' W 090°02'8 8.5
2014-Oct-21 11:33N 29°52' W 089°55'9 9.0
2014-Oct-21 10:33N 29°45' W 090°01'1711.5
2014-Oct-21 09:03N 29°33' W 089°46'812.3
2014-Oct-21 08:25N 29°28' W 089°39'  
Track history (hours):
 
Tides and Currents Weather Stations Pressure Air Temp Water Temp Dewpoint Dewpoint Depression Visibility Wind Speed Wind Dir Waves Ship Positions

New Champion

Last reported at 2014-Oct-25 14:17 UTC. Time now 2014-Oct-26 07:51 UTC.
Position N 29°58' W 090°16'.

Length 228 m; draft 11.4 m.

Type: Ship (hazmat cat A). MMSI: 537985031.

Date/timePositionNaut miles runAvg speedWind from/ knotsBaromVisibWave heightAir tempDewpointWater temp
2014-Oct-25 14:17N 29°58' W 090°16'0 0.0
2014-Oct-25 13:23N 29°58' W 090°16'0 0.0
2014-Oct-25 12:14N 29°58' W 090°16'0 0.0
2014-Oct-25 11:32N 29°58' W 090°16'0 0.0
2014-Oct-25 10:17N 29°58' W 090°16'0 0.0
2014-Oct-25 08:17N 29°58' W 090°16'0 0.0
2014-Oct-25 07:29N 29°58' W 090°16'0 0.0
2014-Oct-25 06:29N 29°58' W 090°16'0 0.0
2014-Oct-24 15:29N 29°58' W 090°16'0 0.0
2014-Oct-24 14:29N 29°58' W 090°16'0 0.0
2014-Oct-24 13:29N 29°58' W 090°16'0 0.0
2014-Oct-24 12:29N 29°58' W 090°16'0 0.0
2014-Oct-24 11:26N 29°58' W 090°16'0 0.0
2014-Oct-24 07:17N 29°58' W 090°16'0 0.0
2014-Oct-24 06:32N 29°58' W 090°16'0 0.0
2014-Oct-23 12:08N 29°58' W 090°16'0 0.0
2014-Oct-23 10:20N 29°58' W 090°16'0 0.0
2014-Oct-22 13:32N 29°58' W 090°16'1 0.0
2014-Oct-21 14:30N 29°58' W 090°16'8 6.4
2014-Oct-21 13:20N 29°55' W 090°08'6 7.1
2014-Oct-21 12:29N 29°57' W 090°02'8 8.5
2014-Oct-21 11:33N 29°52' W 089°55'9 9.0
2014-Oct-21 10:33N 29°45' W 090°01'1711.5
2014-Oct-21 09:03N 29°33' W 089°46'812.3
2014-Oct-21 08:25N 29°28' W 089°39'  

Dump ship's entire track history